createdAt,value
2023-01-12T00:00:54.272Z,5.90
2023-01-12T00:03:21.509Z,6.10
2023-01-12T00:05:48.884Z,5.10
2023-01-12T00:08:15.882Z,4.63
2023-01-12T00:10:42.763Z,5.10
2023-01-12T00:13:09.709Z,5.35
2023-01-12T00:15:56.835Z,4.40
2023-01-12T00:18:23.720Z,5.38
2023-01-12T00:20:51.078Z,6.57
2023-01-12T00:23:18.094Z,5.65
2023-01-12T00:25:51.295Z,5.53
2023-01-12T00:28:18.425Z,5.25
2023-01-12T00:30:45.574Z,5.57
2023-01-12T00:33:14.247Z,4.90
2023-01-12T00:35:41.261Z,5.00
2023-01-12T00:38:08.633Z,5.70
2023-01-12T00:40:36.737Z,4.85
2023-01-12T00:43:23.135Z,5.15
2023-01-12T00:45:51.353Z,4.55
2023-01-12T00:48:18.413Z,4.75
2023-01-12T00:50:46.750Z,5.00
2023-01-12T00:53:13.909Z,4.28
2023-01-12T00:55:40.956Z,4.25
2023-01-12T00:58:07.794Z,5.90
2023-01-12T01:00:34.645Z,6.00
2023-01-12T01:03:01.665Z,5.05
2023-01-12T01:05:28.714Z,5.60
2023-01-12T01:07:55.720Z,4.90
2023-01-12T01:10:22.543Z,4.97
2023-01-12T01:12:49.434Z,4.13
2023-01-12T01:15:16.305Z,3.72
2023-01-12T01:17:43.119Z,4.30
2023-01-12T01:20:10.798Z,4.38
2023-01-12T01:22:37.758Z,4.90
2023-01-12T01:25:05.037Z,5.10
2023-01-12T01:27:32.428Z,5.20
2023-01-12T01:29:59.447Z,4.32
2023-01-12T01:32:27.064Z,4.68
2023-01-12T01:34:53.958Z,4.82
2023-01-12T01:37:21.898Z,5.05
2023-01-12T01:39:48.899Z,4.40
2023-01-12T01:42:30.795Z,3.25
2023-01-12T01:45:01.198Z,2.85
2023-01-12T01:47:36.865Z,3.45
2023-01-12T01:50:09.527Z,3.17
2023-01-12T01:52:45.270Z,3.35
2023-01-12T01:55:39.026Z,3.35
2023-01-12T01:58:15.356Z,3.03
2023-01-12T02:00:43.751Z,3.10
2023-01-12T02:03:13.279Z,3.00
2023-01-12T02:05:44.142Z,2.60
2023-01-12T02:08:36.369Z,2.55
2023-01-12T02:11:03.685Z,2.40
2023-01-12T02:13:49.885Z,2.70
2023-01-12T02:16:25.793Z,2.20
2023-01-12T02:19:21.717Z,2.05
2023-01-12T02:22:33.625Z,2.45
2023-01-12T02:25:37.462Z,2.60
2023-01-12T02:28:41.390Z,3.00
2023-01-12T02:31:42.792Z,2.40
2023-01-12T02:34:12.422Z,2.33
2023-01-12T02:36:58.709Z,2.22
2023-01-12T02:39:59.747Z,2.42
2023-01-12T02:42:41.894Z,2.40
2023-01-12T02:45:11.705Z,2.20
2023-01-12T02:47:59.481Z,1.58
2023-01-12T02:50:42.751Z,1.88
2023-01-12T02:53:23.058Z,2.42
2023-01-12T02:55:51.272Z,2.20
2023-01-12T02:58:21.657Z,2.70
2023-01-12T03:00:51.211Z,2.35
2023-01-12T03:03:19.443Z,2.70
2023-01-12T03:05:47.588Z,1.90
2023-01-12T03:08:18.706Z,1.77
2023-01-12T03:10:54.627Z,1.85
2023-01-12T03:13:23.308Z,1.80
2023-01-12T03:15:54.523Z,1.70
2023-01-12T03:18:30.454Z,1.35
2023-01-12T03:21:05.593Z,2.00
2023-01-12T03:23:53.375Z,1.90
2023-01-12T03:26:23.940Z,1.55
2023-01-12T03:28:56.314Z,1.30
2023-01-12T03:33:51.852Z,1.50
2023-01-12T03:36:39.928Z,1.50
2023-01-12T03:39:29.342Z,1.50
2023-01-12T03:42:25.758Z,1.60
2023-01-12T03:45:06.012Z,1.40
2023-01-12T03:47:33.894Z,1.08
2023-01-12T03:50:09.969Z,1.40
2023-01-12T03:52:39.536Z,1.20
2023-01-12T03:55:10.269Z,1.50
2023-01-12T03:57:38.719Z,1.20
2023-01-12T04:00:11.611Z,2.20
2023-01-12T04:02:38.477Z,1.33
2023-01-12T04:05:08.276Z,1.40
2023-01-12T04:07:35.241Z,1.35
2023-01-12T04:10:02.203Z,1.35
2023-01-12T04:12:30.322Z,1.27
2023-01-12T04:14:57.347Z,1.20
2023-01-12T04:17:25.480Z,0.77
2023-01-12T04:19:52.862Z,0.90
2023-01-12T04:22:38.208Z,1.20
2023-01-12T04:25:07.511Z,1.10
2023-01-12T04:27:35.449Z,1.02
2023-01-12T04:30:02.691Z,1.00
2023-01-12T04:32:29.507Z,1.00
2023-01-12T04:34:56.418Z,1.08
2023-01-12T04:37:23.271Z,1.02
2023-01-12T04:39:50.154Z,0.80
2023-01-12T04:42:35.370Z,1.05
2023-01-12T04:45:02.395Z,0.98
2023-01-12T04:47:29.493Z,1.20
2023-01-12T04:49:56.351Z,1.30
2023-01-12T04:52:23.227Z,1.60
2023-01-12T04:54:50.097Z,1.77
2023-01-12T04:57:16.890Z,1.20
2023-01-12T04:59:43.797Z,1.20
2023-01-12T05:02:10.767Z,1.13
2023-01-12T05:04:37.724Z,1.00
2023-01-12T05:07:04.593Z,0.75
2023-01-12T05:09:49.913Z,0.90
2023-01-12T05:12:16.818Z,0.80
2023-01-12T05:14:44.066Z,0.70
2023-01-12T05:17:10.969Z,0.90
2023-01-12T05:19:37.865Z,0.60
2023-01-12T05:22:04.743Z,0.75
2023-01-12T05:24:31.675Z,0.50
2023-01-12T05:26:58.611Z,0.80
2023-01-12T05:29:25.603Z,0.70
2023-01-12T05:31:52.839Z,1.27
2023-01-12T05:34:20.714Z,0.77
2023-01-12T05:36:48.673Z,1.00
2023-01-12T05:39:16.699Z,0.80
2023-01-12T05:42:03.585Z,1.27
2023-01-12T05:44:30.443Z,1.20
2023-01-12T05:46:57.300Z,0.63
2023-01-12T05:49:25.484Z,0.82
2023-01-12T05:51:52.688Z,0.95
2023-01-12T05:54:22.051Z,1.10
2023-01-12T05:56:49.923Z,0.98
2023-01-12T05:59:17.588Z,1.48
2023-01-12T06:01:44.555Z,1.10
2023-01-12T06:04:11.489Z,1.20
2023-01-12T06:06:38.492Z,1.33
2023-01-12T06:09:05.733Z,1.30
2023-01-12T06:11:52.214Z,1.08
2023-01-12T06:14:21.831Z,1.30
2023-01-12T06:16:48.800Z,1.30
2023-01-12T06:19:16.472Z,1.20
2023-01-12T06:21:43.444Z,0.95
2023-01-12T06:24:11.675Z,1.52
2023-01-12T06:26:40.125Z,5.13
2023-01-12T06:29:07.825Z,2.28
2023-01-12T06:31:38.631Z,1.70
2023-01-12T06:34:07.946Z,1.60
2023-01-12T06:36:35.809Z,2.75
2023-01-12T06:39:04.967Z,2.22
2023-01-12T06:41:53.255Z,2.53
2023-01-12T06:44:20.335Z,2.35
2023-01-12T06:46:47.705Z,1.55
2023-01-12T06:54:41.035Z,1.42
2023-01-12T06:57:08.042Z,1.48
2023-01-12T06:59:35.257Z,1.80
2023-01-12T07:02:12.785Z,2.28
2023-01-12T07:04:43.750Z,2.97
2023-01-12T07:07:13.475Z,2.22
2023-01-12T07:09:40.539Z,3.10
2023-01-12T07:12:12.377Z,2.45
2023-01-12T07:14:39.373Z,2.83
2023-01-12T07:17:06.231Z,3.63
2023-01-12T07:19:33.199Z,2.63
2023-01-12T07:22:00.062Z,2.83
2023-01-12T07:24:27.313Z,2.42
2023-01-12T07:27:00.339Z,2.10
2023-01-12T07:29:39.791Z,2.33
2023-01-12T07:34:51.505Z,3.13
2023-01-12T07:37:20.027Z,2.60
2023-01-12T07:39:47.003Z,3.42
2023-01-12T07:42:26.495Z,3.50
2023-01-12T07:44:58.800Z,3.28
2023-01-12T07:50:10.730Z,2.88
2023-01-12T07:52:40.941Z,2.80
2023-01-12T07:55:16.163Z,3.38
2023-01-12T07:57:44.918Z,3.92
2023-01-12T08:00:24.451Z,3.53
2023-01-12T08:02:52.923Z,4.80
2023-01-12T08:05:26.298Z,5.47
2023-01-12T08:07:53.450Z,2.88
2023-01-12T08:10:20.915Z,3.10
2023-01-12T08:12:52.183Z,4.40
2023-01-12T08:15:19.100Z,3.83
2023-01-12T08:18:05.875Z,3.33
2023-01-12T08:20:35.831Z,4.13
2023-01-12T08:23:14.015Z,5.28
2023-01-12T08:25:47.282Z,4.88
2023-01-12T08:28:19.507Z,5.75
2023-01-12T08:30:48.677Z,6.32
2023-01-12T08:33:16.148Z,5.75
2023-01-12T08:35:44.552Z,5.57
2023-01-12T08:38:13.091Z,4.90
2023-01-12T08:40:58.531Z,6.57
2023-01-12T08:43:43.729Z,22.73
2023-01-12T08:46:10.709Z,18.85
2023-01-12T08:48:38.094Z,18.20
2023-01-12T08:51:17.696Z,15.60
2023-01-12T08:53:44.721Z,7.57
2023-01-12T08:56:11.715Z,9.02
2023-01-12T08:58:39.070Z,12.63
2023-01-12T09:01:08.743Z,10.32
2023-01-12T09:03:47.784Z,10.98
2023-01-12T09:06:23.545Z,11.05
2023-01-12T09:09:00.117Z,12.85
2023-01-12T09:11:29.942Z,11.25
2023-01-12T09:13:59.319Z,14.70
2023-01-12T09:16:29.598Z,14.65
2023-01-12T09:18:56.975Z,13.07
2023-01-12T09:21:26.104Z,10.43
2023-01-12T09:24:00.953Z,10.10
2023-01-12T09:26:34.279Z,9.45
2023-01-12T09:29:04.180Z,8.50
2023-01-12T09:31:33.152Z,8.70
2023-01-12T09:34:00.154Z,9.60
2023-01-12T09:36:29.241Z,9.00
2023-01-12T09:38:57.115Z,9.63
2023-01-12T09:41:56.642Z,8.10
2023-01-12T09:44:53.651Z,7.72
2023-01-12T09:47:31.926Z,6.28
2023-01-12T09:50:09.224Z,7.00
2023-01-12T09:52:42.620Z,6.43
2023-01-12T09:55:19.216Z,7.00
2023-01-12T09:58:08.080Z,7.15
2023-01-12T10:00:35.382Z,6.75
2023-01-12T10:03:12.132Z,6.65
2023-01-12T10:05:54.704Z,6.45
2023-01-12T10:08:41.949Z,6.25
2023-01-12T10:11:16.701Z,5.93
2023-01-12T10:14:04.257Z,6.53
2023-01-12T10:16:50.391Z,6.38
2023-01-12T10:19:48.388Z,7.40
2023-01-12T10:22:39.814Z,7.82
2023-01-12T10:25:39.918Z,7.90
2023-01-12T10:28:25.746Z,7.88
2023-01-12T10:30:56.229Z,7.60
2023-01-12T10:33:34.745Z,7.78
2023-01-12T10:36:01.610Z,9.30
2023-01-12T10:38:32.445Z,9.40
2023-01-12T10:41:14.974Z,9.05
2023-01-12T10:43:44.160Z,9.57
2023-01-12T10:46:23.633Z,9.70
2023-01-12T10:48:54.929Z,9.63
2023-01-12T10:51:26.190Z,10.38
2023-01-12T10:54:20.211Z,9.98
2023-01-12T10:57:01.299Z,8.82
2023-01-12T10:59:33.751Z,9.40
2023-01-12T11:02:09.390Z,9.15
2023-01-12T11:04:41.149Z,8.30
2023-01-12T11:07:25.810Z,8.88
2023-01-12T11:09:57.772Z,8.82
2023-01-12T11:12:40.387Z,7.25
2023-01-12T11:15:11.063Z,8.25
2023-01-12T11:17:56.959Z,8.77
2023-01-12T11:20:50.589Z,10.77
2023-01-12T11:23:37.936Z,9.60
2023-01-12T11:26:24.126Z,9.30
2023-01-12T11:28:57.014Z,8.43
2023-01-12T11:31:38.991Z,7.97
2023-01-12T11:34:18.387Z,8.15
2023-01-12T11:37:00.889Z,8.95
2023-01-12T11:39:30.677Z,8.77
2023-01-12T11:42:18.461Z,8.20
2023-01-12T11:44:58.244Z,10.35
2023-01-12T11:47:35.603Z,13.13
2023-01-12T11:50:05.981Z,10.50
2023-01-12T11:52:33.324Z,10.85
2023-01-12T11:55:05.586Z,12.27
2023-01-12T12:00:13.609Z,10.25
2023-01-12T12:02:59.836Z,9.93
2023-01-12T12:05:47.660Z,10.90
2023-01-12T12:08:33.485Z,9.38
2023-01-12T12:11:25.066Z,8.35
2023-01-12T12:13:58.365Z,9.30
2023-01-12T12:16:32.048Z,8.15
2023-01-12T12:19:34.482Z,9.05
2023-01-12T12:22:22.909Z,8.73
2023-01-12T12:25:22.709Z,8.70
2023-01-12T12:27:52.258Z,8.23
2023-01-12T12:30:47.358Z,8.20
2023-01-12T12:33:40.162Z,8.57
2023-01-12T12:36:19.333Z,8.70
2023-01-12T12:39:13.024Z,9.30
2023-01-12T12:42:08.367Z,9.00
2023-01-12T12:45:25.636Z,9.82
2023-01-12T12:47:57.294Z,9.95
2023-01-12T12:50:28.037Z,10.95
2023-01-12T12:53:14.294Z,11.00
2023-01-12T12:55:42.424Z,12.00
2023-01-12T12:58:21.856Z,11.88
2023-01-12T13:01:15.064Z,11.90
2023-01-12T13:03:48.734Z,12.02
2023-01-12T13:06:49.011Z,11.52
2023-01-12T13:09:16.217Z,12.18
2023-01-12T13:11:54.410Z,11.95
2023-01-12T13:14:38.399Z,11.88
2023-01-12T13:17:21.758Z,11.07
2023-01-12T13:20:24.723Z,10.45
2023-01-12T13:22:52.210Z,10.73
2023-01-12T13:25:26.424Z,11.43
2023-01-12T13:28:11.099Z,10.52
2023-01-12T13:30:50.890Z,10.98
2023-01-12T13:33:24.631Z,11.60
2023-01-12T13:35:51.547Z,9.40
2023-01-12T13:38:44.738Z,9.27
2023-01-12T13:41:14.440Z,8.55
2023-01-12T13:43:55.281Z,8.02
2023-01-12T13:46:28.425Z,7.00
2023-01-12T13:48:56.438Z,6.90
2023-01-12T13:51:31.825Z,8.32
2023-01-12T13:54:07.087Z,7.43
2023-01-12T13:56:34.195Z,7.75
2023-01-12T13:59:07.748Z,7.22
2023-01-12T14:01:39.387Z,8.32
2023-01-12T14:04:17.385Z,26.65
2023-01-12T14:06:59.544Z,15.98
2023-01-12T14:09:57.226Z,8.82
2023-01-12T14:12:59.885Z,7.72
2023-01-12T14:15:57.478Z,8.07
2023-01-12T14:18:36.210Z,6.93
2023-01-12T14:21:03.231Z,6.80
2023-01-12T14:23:33.797Z,7.18
2023-01-12T14:26:09.759Z,7.30
2023-01-12T14:28:38.720Z,7.90
2023-01-12T14:31:10.283Z,15.23
2023-01-12T14:33:38.932Z,8.55
2023-01-12T14:36:24.370Z,7.63
2023-01-12T14:38:52.314Z,7.63
2023-01-12T14:41:46.410Z,7.93
2023-01-12T14:44:40.937Z,7.55
2023-01-12T14:47:08.474Z,6.88
2023-01-12T14:49:37.858Z,6.68
2023-01-12T14:52:16.093Z,6.95
2023-01-12T14:54:43.763Z,6.45
2023-01-12T14:57:37.326Z,7.03
2023-01-12T15:00:08.224Z,8.15
2023-01-12T15:02:42.129Z,8.43
2023-01-12T15:05:08.883Z,6.95
2023-01-12T15:07:37.728Z,8.93
2023-01-12T15:10:10.587Z,7.22
2023-01-12T15:12:45.335Z,6.82
2023-01-12T15:15:52.490Z,7.15
2023-01-12T15:18:38.012Z,7.43
2023-01-12T15:21:26.519Z,7.70
2023-01-12T15:24:11.914Z,8.55
2023-01-12T15:26:38.948Z,7.15
2023-01-12T15:29:05.781Z,8.13
2023-01-12T15:31:39.410Z,8.77
2023-01-12T15:34:06.702Z,9.55
2023-01-12T15:36:33.481Z,9.63
2023-01-12T15:39:01.793Z,9.02
2023-01-12T15:41:49.690Z,9.02
2023-01-12T15:44:19.038Z,11.02
2023-01-12T15:46:46.402Z,10.38
2023-01-12T15:49:14.367Z,12.05
2023-01-12T15:51:44.332Z,13.45
2023-01-12T15:54:13.477Z,14.60
2023-01-12T15:56:40.644Z,15.50
2023-01-12T15:59:07.547Z,21.20
2023-01-12T16:01:44.261Z,20.10
2023-01-12T16:04:42.271Z,20.50
2023-01-12T16:07:09.551Z,21.13
2023-01-12T16:09:36.470Z,19.27
2023-01-12T16:12:03.397Z,17.85
2023-01-12T16:14:31.217Z,15.32
2023-01-12T16:17:04.040Z,15.80
2023-01-12T16:19:42.411Z,16.33
2023-01-12T16:22:27.473Z,14.23
2023-01-12T16:24:56.358Z,18.08
2023-01-12T16:27:25.490Z,17.58
2023-01-12T16:29:54.374Z,19.80
2023-01-12T16:32:26.264Z,19.20
2023-01-12T16:34:53.461Z,17.77
2023-01-12T16:40:06.178Z,26.52
2023-01-12T16:42:33.298Z,26.88
2023-01-12T16:45:00.418Z,59.10
2023-01-12T16:47:27.312Z,83.97
2023-01-12T16:49:55.777Z,52.88
2023-01-12T16:52:23.804Z,53.88
2023-01-12T16:54:50.773Z,22.63
2023-01-12T16:57:20.707Z,17.80
2023-01-12T16:59:51.386Z,16.40
2023-01-12T17:02:24.553Z,13.75
2023-01-12T17:08:02.683Z,12.63
2023-01-12T17:10:37.873Z,18.38
2023-01-12T17:13:08.386Z,15.88
2023-01-12T17:15:36.070Z,15.80
2023-01-12T17:18:03.744Z,13.80
2023-01-12T17:20:31.756Z,12.05
2023-01-12T17:23:25.944Z,13.45
2023-01-12T17:25:58.352Z,15.50
2023-01-12T17:30:54.126Z,13.65
2023-01-12T17:33:21.698Z,16.60
2023-01-12T17:35:52.991Z,9.88
2023-01-12T17:38:41.074Z,8.23
2023-01-12T17:41:29.885Z,7.57
2023-01-12T17:44:12.829Z,7.57
2023-01-12T17:47:05.792Z,9.82
2023-01-12T18:01:23.163Z,8.80
2023-01-12T18:03:50.534Z,11.65
2023-01-12T18:09:07.044Z,7.05
2023-01-12T18:11:35.370Z,9.23
2023-01-12T18:14:03.753Z,8.90
2023-01-12T18:24:35.226Z,9.13
2023-01-12T18:27:03.766Z,7.25
2023-01-12T18:29:31.010Z,10.02
2023-01-12T18:32:47.316Z,11.00
2023-01-12T18:38:33.505Z,20.42
2023-01-12T18:42:04.211Z,11.75
2023-01-12T18:44:42.701Z,11.55
2023-01-12T18:47:33.233Z,10.98
2023-01-12T18:50:39.495Z,16.45
2023-01-12T18:53:34.292Z,9.90
2023-01-12T18:56:30.582Z,8.98
2023-01-12T18:58:57.897Z,21.15
2023-01-12T19:01:25.700Z,11.00
2023-01-12T19:03:57.653Z,10.85
2023-01-12T19:06:46.166Z,11.60
2023-01-12T19:09:33.562Z,11.27
2023-01-12T19:12:02.184Z,10.25
2023-01-12T19:17:44.072Z,10.60
2023-01-12T19:23:16.003Z,9.05
2023-01-12T19:26:09.157Z,7.47
2023-01-12T19:31:30.521Z,7.75
2023-01-12T19:39:46.642Z,8.00
2023-01-12T19:45:24.591Z,9.00
2023-01-12T19:58:43.245Z,7.32
2023-01-12T20:01:14.151Z,7.28
2023-01-12T20:03:49.080Z,7.60
2023-01-12T20:06:17.666Z,7.13
2023-01-12T20:08:45.961Z,8.70
2023-01-12T20:11:19.408Z,7.68
2023-01-12T20:13:46.452Z,8.32
2023-01-12T20:16:13.951Z,10.85
2023-01-12T20:18:43.542Z,9.60
2023-01-12T20:21:17.276Z,8.32
2023-01-12T20:23:48.621Z,9.23
2023-01-12T20:26:15.682Z,7.43
2023-01-12T20:28:48.465Z,8.30
2023-01-12T20:37:07.662Z,7.45
2023-01-12T20:39:42.317Z,8.55
2023-01-12T20:44:51.924Z,10.02
2023-01-12T20:50:10.695Z,10.45
2023-01-12T20:52:37.861Z,10.20
2023-01-12T20:57:54.588Z,10.50
2023-01-12T21:00:22.850Z,8.70
2023-01-12T21:02:51.465Z,6.85
2023-01-12T21:05:25.640Z,7.30
2023-01-12T21:08:00.064Z,7.18
2023-01-12T21:10:39.856Z,6.40
2023-01-12T21:13:08.362Z,5.25
2023-01-12T21:15:48.009Z,5.80
2023-01-12T21:18:15.198Z,5.53
2023-01-12T21:20:51.097Z,6.10
2023-01-12T21:23:20.655Z,5.75
2023-01-12T21:25:48.014Z,6.45
2023-01-12T21:28:18.841Z,12.18
2023-01-12T21:30:46.081Z,7.95
2023-01-12T21:33:13.992Z,10.13
2023-01-12T21:35:45.082Z,13.43
2023-01-12T21:38:12.157Z,7.93
2023-01-12T21:40:39.619Z,4.53
2023-01-12T21:43:13.753Z,6.63
2023-01-12T21:45:43.708Z,5.97
2023-01-12T21:48:12.378Z,7.82
2023-01-12T21:53:22.498Z,6.57
2023-01-12T21:56:15.754Z,7.03
2023-01-12T21:58:44.350Z,8.40
2023-01-12T22:01:56.775Z,8.50
2023-01-12T22:07:16.927Z,9.98
2023-01-12T22:15:15.000Z,11.98
2023-01-12T22:17:42.983Z,13.90
2023-01-12T22:20:12.276Z,14.25
2023-01-12T22:28:14.230Z,19.83
2023-01-12T22:30:43.635Z,16.40
2023-01-12T22:33:12.290Z,13.75
2023-01-12T22:35:40.164Z,12.95
2023-01-12T22:38:12.691Z,12.27
2023-01-12T22:40:39.809Z,13.90
2023-01-12T22:43:29.564Z,12.07
2023-01-12T22:46:13.560Z,8.43
2023-01-12T22:48:43.736Z,10.65
2023-01-12T22:51:11.032Z,10.07
2023-01-12T22:53:42.713Z,12.68
2023-01-12T22:56:10.781Z,13.75
2023-01-12T22:58:38.351Z,12.38
2023-01-12T23:01:09.944Z,12.50
2023-01-12T23:03:38.268Z,11.55
2023-01-12T23:06:06.012Z,11.15
2023-01-12T23:08:33.093Z,11.80
2023-01-12T23:11:30.057Z,10.90
2023-01-12T23:13:57.148Z,11.80
2023-01-12T23:16:24.765Z,11.77
2023-01-12T23:18:55.123Z,10.43
2023-01-12T23:21:25.064Z,12.35
2023-01-12T23:23:55.879Z,7.93
2023-01-12T23:26:32.601Z,5.63
2023-01-12T23:29:01.234Z,3.50
2023-01-12T23:31:31.475Z,5.22
2023-01-12T23:33:58.489Z,3.38
2023-01-12T23:36:29.257Z,4.75
2023-01-12T23:39:03.689Z,4.25
2023-01-12T23:41:33.199Z,4.28
2023-01-12T23:44:02.118Z,3.97
2023-01-12T23:46:34.905Z,3.92
2023-01-12T23:49:03.696Z,3.60
2023-01-12T23:51:31.484Z,3.20
2023-01-12T23:54:00.750Z,3.75
2023-01-12T23:56:33.856Z,3.78
2023-01-12T23:59:01.340Z,3.85
